sensor_id;sensor_type;location;lat;lon;timestamp;temperature;humidity
75824;DHT22;64457;51.976;9.834;2022-12-29T00:01:42;12.20;99.90
75824;DHT22;64457;51.976;9.834;2022-12-29T00:04:15;12.10;99.80
75824;DHT22;64457;51.976;9.834;2022-12-29T00:06:44;12.20;99.90
75824;DHT22;64457;51.976;9.834;2022-12-29T00:09:12;12.10;99.90
75824;DHT22;64457;51.976;9.834;2022-12-29T00:11:40;12.00;99.90
75824;DHT22;64457;51.976;9.834;2022-12-29T00:14:09;12.00;99.90
75824;DHT22;64457;51.976;9.834;2022-12-29T00:16:59;11.90;99.90
75824;DHT22;64457;51.976;9.834;2022-12-29T00:19:29;11.80;99.90
75824;DHT22;64457;51.976;9.834;2022-12-29T00:22:14;11.90;99.90
75824;DHT22;64457;51.976;9.834;2022-12-29T00:25:00;11.90;99.90
75824;DHT22;64457;51.976;9.834;2022-12-29T00:27:49;12.10;99.90
75824;DHT22;64457;51.976;9.834;2022-12-29T00:30:35;12.10;99.90
75824;DHT22;64457;51.976;9.834;2022-12-29T00:33:24;12.00;99.90
75824;DHT22;64457;51.976;9.834;2022-12-29T00:36:16;11.80;99.90
75824;DHT22;64457;51.976;9.834;2022-12-29T00:38:50;11.60;99.90
75824;DHT22;64457;51.976;9.834;2022-12-29T00:41:37;11.80;99.90
75824;DHT22;64457;51.976;9.834;2022-12-29T00:44:22;12.00;99.90
75824;DHT22;64457;51.976;9.834;2022-12-29T00:46:51;11.90;99.90
75824;DHT22;64457;51.976;9.834;2022-12-29T00:49:19;12.00;99.90
75824;DHT22;64457;51.976;9.834;2022-12-29T00:52:00;11.90;99.90
75824;DHT22;64457;51.976;9.834;2022-12-29T00:54:31;11.80;99.90
75824;DHT22;64457;51.976;9.834;2022-12-29T00:57:07;12.00;99.90
75824;DHT22;64457;51.976;9.834;2022-12-29T00:59:35;12.00;99.90
75824;DHT22;64457;51.976;9.834;2022-12-29T01:02:04;12.00;99.90
75824;DHT22;64457;51.976;9.834;2022-12-29T01:04:43;12.10;99.90
75824;DHT22;64457;51.976;9.834;2022-12-29T01:07:13;12.00;99.90
75824;DHT22;64457;51.976;9.834;2022-12-29T01:09:41;12.00;99.90
75824;DHT22;64457;51.976;9.834;2022-12-29T01:12:28;12.00;99.90
75824;DHT22;64457;51.976;9.834;2022-12-29T01:15:11;12.00;99.90
75824;DHT22;64457;51.976;9.834;2022-12-29T01:17:39;12.00;99.90
75824;DHT22;64457;51.976;9.834;2022-12-29T01:20:08;12.10;99.90
75824;DHT22;64457;51.976;9.834;2022-12-29T01:22:38;12.10;99.90
75824;DHT22;64457;51.976;9.834;2022-12-29T01:25:08;12.20;99.90
75824;DHT22;64457;51.976;9.834;2022-12-29T01:27:36;12.20;99.90
75824;DHT22;64457;51.976;9.834;2022-12-29T01:30:07;12.20;99.90
75824;DHT22;64457;51.976;9.834;2022-12-29T01:32:42;12.00;99.90
75824;DHT22;64457;51.976;9.834;2022-12-29T01:35:09;11.90;99.90
75824;DHT22;64457;51.976;9.834;2022-12-29T01:37:41;11.90;99.90
75824;DHT22;64457;51.976;9.834;2022-12-29T01:40:10;12.00;99.90
75824;DHT22;64457;51.976;9.834;2022-12-29T01:42:42;12.10;99.90
75824;DHT22;64457;51.976;9.834;2022-12-29T01:45:10;12.20;99.90
75824;DHT22;64457;51.976;9.834;2022-12-29T01:47:43;12.30;99.90
75824;DHT22;64457;51.976;9.834;2022-12-29T01:50:15;12.10;99.90
75824;DHT22;64457;51.976;9.834;2022-12-29T01:52:55;12.20;99.90
75824;DHT22;64457;51.976;9.834;2022-12-29T01:55:26;12.20;99.90
75824;DHT22;64457;51.976;9.834;2022-12-29T01:57:57;12.10;99.90
75824;DHT22;64457;51.976;9.834;2022-12-29T02:00:28;12.10;99.90
75824;DHT22;64457;51.976;9.834;2022-12-29T02:02:56;12.20;99.90
75824;DHT22;64457;51.976;9.834;2022-12-29T02:05:27;11.90;99.90
75824;DHT22;64457;51.976;9.834;2022-12-29T02:07:58;12.00;99.90
75824;DHT22;64457;51.976;9.834;2022-12-29T02:10:29;12.10;99.90
75824;DHT22;64457;51.976;9.834;2022-12-29T02:12:59;12.10;99.90
75824;DHT22;64457;51.976;9.834;2022-12-29T02:15:35;12.30;99.90
75824;DHT22;64457;51.976;9.834;2022-12-29T02:18:21;12.40;99.90
75824;DHT22;64457;51.976;9.834;2022-12-29T02:27:53;12.40;99.90
75824;DHT22;64457;51.976;9.834;2022-12-29T02:30:45;12.40;99.90
75824;DHT22;64457;51.976;9.834;2022-12-29T02:33:25;12.70;99.90
75824;DHT22;64457;51.976;9.834;2022-12-29T02:36:07;13.10;99.90
75824;DHT22;64457;51.976;9.834;2022-12-29T02:38:51;13.00;99.90
75824;DHT22;64457;51.976;9.834;2022-12-29T02:41:32;12.30;99.90
75824;DHT22;64457;51.976;9.834;2022-12-29T02:44:04;12.30;99.90
75824;DHT22;64457;51.976;9.834;2022-12-29T02:46:43;12.20;99.90
75824;DHT22;64457;51.976;9.834;2022-12-29T02:49:16;12.20;99.90
75824;DHT22;64457;51.976;9.834;2022-12-29T02:51:52;12.40;99.90
75824;DHT22;64457;51.976;9.834;2022-12-29T02:54:24;12.40;99.90
75824;DHT22;64457;51.976;9.834;2022-12-29T02:57:12;12.40;99.90
75824;DHT22;64457;51.976;9.834;2022-12-29T02:59:43;12.40;99.90
75824;DHT22;64457;51.976;9.834;2022-12-29T03:02:25;12.40;99.90
75824;DHT22;64457;51.976;9.834;2022-12-29T03:05:19;12.20;99.90
75824;DHT22;64457;51.976;9.834;2022-12-29T03:08:00;12.20;99.90
75824;DHT22;64457;51.976;9.834;2022-12-29T03:10:41;12.20;99.90
75824;DHT22;64457;51.976;9.834;2022-12-29T03:13:23;12.10;99.90
75824;DHT22;64457;51.976;9.834;2022-12-29T03:16:21;12.10;99.90
75824;DHT22;64457;51.976;9.834;2022-12-29T03:19:00;12.10;99.90
75824;DHT22;64457;51.976;9.834;2022-12-29T03:21:34;12.10;99.90
75824;DHT22;64457;51.976;9.834;2022-12-29T03:24:25;12.40;99.90
75824;DHT22;64457;51.976;9.834;2022-12-29T03:26:56;12.70;99.90
75824;DHT22;64457;51.976;9.834;2022-12-29T03:29:28;12.50;99.90
75824;DHT22;64457;51.976;9.834;2022-12-29T03:31:58;12.40;99.90
75824;DHT22;64457;51.976;9.834;2022-12-29T03:34:29;12.20;99.90
75824;DHT22;64457;51.976;9.834;2022-12-29T03:37:06;12.10;99.90
75824;DHT22;64457;51.976;9.834;2022-12-29T03:39:40;12.10;99.90
75824;DHT22;64457;51.976;9.834;2022-12-29T03:42:12;12.20;99.90
75824;DHT22;64457;51.976;9.834;2022-12-29T03:44:43;12.30;99.90
75824;DHT22;64457;51.976;9.834;2022-12-29T03:47:13;12.30;99.90
75824;DHT22;64457;51.976;9.834;2022-12-29T03:49:44;12.30;99.90
75824;DHT22;64457;51.976;9.834;2022-12-29T03:52:12;12.20;99.90
75824;DHT22;64457;51.976;9.834;2022-12-29T03:54:40;12.30;99.90
75824;DHT22;64457;51.976;9.834;2022-12-29T03:57:09;12.10;99.90
75824;DHT22;64457;51.976;9.834;2022-12-29T03:59:38;12.10;99.90
75824;DHT22;64457;51.976;9.834;2022-12-29T04:02:07;12.00;99.90
75824;DHT22;64457;51.976;9.834;2022-12-29T04:04:37;12.10;99.90
75824;DHT22;64457;51.976;9.834;2022-12-29T04:07:06;12.20;99.90
75824;DHT22;64457;51.976;9.834;2022-12-29T04:09:34;12.30;99.90
75824;DHT22;64457;51.976;9.834;2022-12-29T04:12:01;12.20;99.90
75824;DHT22;64457;51.976;9.834;2022-12-29T04:14:29;12.30;99.90
75824;DHT22;64457;51.976;9.834;2022-12-29T04:16:57;12.50;99.90
75824;DHT22;64457;51.976;9.834;2022-12-29T04:19:24;12.60;99.90
75824;DHT22;64457;51.976;9.834;2022-12-29T04:21:54;12.70;99.90
75824;DHT22;64457;51.976;9.834;2022-12-29T04:24:27;12.70;99.90
75824;DHT22;64457;51.976;9.834;2022-12-29T04:26:55;12.60;99.90
75824;DHT22;64457;51.976;9.834;2022-12-29T04:29:23;12.70;99.90
75824;DHT22;64457;51.976;9.834;2022-12-29T04:31:51;12.70;99.90
75824;DHT22;64457;51.976;9.834;2022-12-29T04:34:23;12.80;99.90
75824;DHT22;64457;51.976;9.834;2022-12-29T04:36:53;12.90;99.90
75824;DHT22;64457;51.976;9.834;2022-12-29T04:39:24;12.80;99.90
75824;DHT22;64457;51.976;9.834;2022-12-29T04:41:54;12.90;99.90
75824;DHT22;64457;51.976;9.834;2022-12-29T04:44:21;13.10;99.90
75824;DHT22;64457;51.976;9.834;2022-12-29T04:46:51;13.00;99.90
75824;DHT22;64457;51.976;9.834;2022-12-29T04:49:19;13.20;99.90
75824;DHT22;64457;51.976;9.834;2022-12-29T04:51:47;13.30;99.90
75824;DHT22;64457;51.976;9.834;2022-12-29T04:54:18;13.50;99.90
75824;DHT22;64457;51.976;9.834;2022-12-29T04:56:45;13.50;99.90
75824;DHT22;64457;51.976;9.834;2022-12-29T04:59:21;13.30;99.90
75824;DHT22;64457;51.976;9.834;2022-12-29T05:01:49;13.40;99.90
75824;DHT22;64457;51.976;9.834;2022-12-29T05:04:19;13.20;99.90
75824;DHT22;64457;51.976;9.834;2022-12-29T05:06:47;13.30;99.90
75824;DHT22;64457;51.976;9.834;2022-12-29T05:09:15;13.30;99.90
75824;DHT22;64457;51.976;9.834;2022-12-29T05:11:43;13.20;99.90
75824;DHT22;64457;51.976;9.834;2022-12-29T05:14:16;13.20;99.90
75824;DHT22;64457;51.976;9.834;2022-12-29T05:16:47;13.20;99.90
75824;DHT22;64457;51.976;9.834;2022-12-29T05:19:16;13.40;99.90
75824;DHT22;64457;51.976;9.834;2022-12-29T05:21:47;13.30;99.90
75824;DHT22;64457;51.976;9.834;2022-12-29T05:24:20;13.30;99.90
75824;DHT22;64457;51.976;9.834;2022-12-29T05:26:48;13.30;99.90
75824;DHT22;64457;51.976;9.834;2022-12-29T05:29:21;13.20;99.90
75824;DHT22;64457;51.976;9.834;2022-12-29T05:31:51;13.30;99.90
75824;DHT22;64457;51.976;9.834;2022-12-29T05:34:22;13.10;99.90
75824;DHT22;64457;51.976;9.834;2022-12-29T05:36:51;13.00;99.90
75824;DHT22;64457;51.976;9.834;2022-12-29T05:39:19;12.80;99.90
75824;DHT22;64457;51.976;9.834;2022-12-29T05:41:47;12.90;99.90
75824;DHT22;64457;51.976;9.834;2022-12-29T05:44:15;12.90;99.90
75824;DHT22;64457;51.976;9.834;2022-12-29T05:46:55;12.70;99.90
75824;DHT22;64457;51.976;9.834;2022-12-29T05:49:28;12.60;99.90
75824;DHT22;64457;51.976;9.834;2022-12-29T05:51:56;12.60;99.90
75824;DHT22;64457;51.976;9.834;2022-12-29T05:54:33;12.60;99.90
75824;DHT22;64457;51.976;9.834;2022-12-29T05:57:01;12.60;99.90
75824;DHT22;64457;51.976;9.834;2022-12-29T05:59:32;12.60;99.90
75824;DHT22;64457;51.976;9.834;2022-12-29T06:02:02;12.40;99.90
75824;DHT22;64457;51.976;9.834;2022-12-29T06:04:30;12.40;99.90
75824;DHT22;64457;51.976;9.834;2022-12-29T06:07:04;12.70;99.90
75824;DHT22;64457;51.976;9.834;2022-12-29T06:09:33;12.90;99.90
75824;DHT22;64457;51.976;9.834;2022-12-29T06:12:01;13.10;99.90
75824;DHT22;64457;51.976;9.834;2022-12-29T06:14:29;13.00;99.90
75824;DHT22;64457;51.976;9.834;2022-12-29T06:17:03;13.10;99.90
75824;DHT22;64457;51.976;9.834;2022-12-29T06:19:34;13.10;99.90
75824;DHT22;64457;51.976;9.834;2022-12-29T06:22:05;13.10;99.90
75824;DHT22;64457;51.976;9.834;2022-12-29T06:24:34;13.10;99.90
75824;DHT22;64457;51.976;9.834;2022-12-29T06:27:02;13.20;99.90
75824;DHT22;64457;51.976;9.834;2022-12-29T06:29:33;13.10;99.90
75824;DHT22;64457;51.976;9.834;2022-12-29T06:32:05;13.00;99.90
75824;DHT22;64457;51.976;9.834;2022-12-29T06:34:39;13.10;99.90
75824;DHT22;64457;51.976;9.834;2022-12-29T06:37:07;13.20;99.90
75824;DHT22;64457;51.976;9.834;2022-12-29T06:39:37;13.40;99.90
75824;DHT22;64457;51.976;9.834;2022-12-29T06:42:05;13.20;99.90
75824;DHT22;64457;51.976;9.834;2022-12-29T06:44:34;13.20;99.90
75824;DHT22;64457;51.976;9.834;2022-12-29T06:47:04;13.10;99.90
75824;DHT22;64457;51.976;9.834;2022-12-29T06:49:32;13.20;99.90
75824;DHT22;64457;51.976;9.834;2022-12-29T06:52:04;13.10;99.90
75824;DHT22;64457;51.976;9.834;2022-12-29T06:54:33;13.10;99.90
75824;DHT22;64457;51.976;9.834;2022-12-29T06:57:01;13.20;99.90
75824;DHT22;64457;51.976;9.834;2022-12-29T06:59:29;13.20;99.90
75824;DHT22;64457;51.976;9.834;2022-12-29T07:01:57;13.30;99.90
75824;DHT22;64457;51.976;9.834;2022-12-29T07:04:26;13.30;99.90
75824;DHT22;64457;51.976;9.834;2022-12-29T07:06:56;13.20;99.90
75824;DHT22;64457;51.976;9.834;2022-12-29T07:09:24;13.30;99.90
75824;DHT22;64457;51.976;9.834;2022-12-29T07:11:51;13.30;99.90
75824;DHT22;64457;51.976;9.834;2022-12-29T07:14:19;13.50;99.90
75824;DHT22;64457;51.976;9.834;2022-12-29T07:16:46;13.60;99.90
75824;DHT22;64457;51.976;9.834;2022-12-29T07:19:14;13.40;99.90
75824;DHT22;64457;51.976;9.834;2022-12-29T07:21:46;13.50;99.90
75824;DHT22;64457;51.976;9.834;2022-12-29T07:24:14;13.40;99.90
75824;DHT22;64457;51.976;9.834;2022-12-29T07:26:41;13.50;99.90
75824;DHT22;64457;51.976;9.834;2022-12-29T07:29:09;13.40;99.90
75824;DHT22;64457;51.976;9.834;2022-12-29T07:31:36;13.50;99.90
75824;DHT22;64457;51.976;9.834;2022-12-29T07:34:07;13.60;99.90
75824;DHT22;64457;51.976;9.834;2022-12-29T07:36:37;13.60;99.90
75824;DHT22;64457;51.976;9.834;2022-12-29T07:39:07;13.60;99.90
75824;DHT22;64457;51.976;9.834;2022-12-29T07:41:34;13.80;99.90
75824;DHT22;64457;51.976;9.834;2022-12-29T07:44:02;13.50;99.90
75824;DHT22;64457;51.976;9.834;2022-12-29T07:46:30;13.40;99.90
75824;DHT22;64457;51.976;9.834;2022-12-29T07:49:01;13.50;99.90
75824;DHT22;64457;51.976;9.834;2022-12-29T07:51:28;13.50;99.90
75824;DHT22;64457;51.976;9.834;2022-12-29T07:53:57;13.50;99.90
75824;DHT22;64457;51.976;9.834;2022-12-29T07:56:27;13.50;99.90
75824;DHT22;64457;51.976;9.834;2022-12-29T07:58:56;13.70;99.90
75824;DHT22;64457;51.976;9.834;2022-12-29T08:01:29;13.60;99.90
75824;DHT22;64457;51.976;9.834;2022-12-29T08:03:56;13.60;99.90
75824;DHT22;64457;51.976;9.834;2022-12-29T08:06:24;13.70;99.90
75824;DHT22;64457;51.976;9.834;2022-12-29T08:08:52;13.80;99.90
75824;DHT22;64457;51.976;9.834;2022-12-29T08:11:22;13.80;99.90
75824;DHT22;64457;51.976;9.834;2022-12-29T08:13:51;13.50;99.90
75824;DHT22;64457;51.976;9.834;2022-12-29T08:16:18;13.60;99.90
75824;DHT22;64457;51.976;9.834;2022-12-29T08:18:46;13.70;99.90
75824;DHT22;64457;51.976;9.834;2022-12-29T08:21:13;13.60;99.90
75824;DHT22;64457;51.976;9.834;2022-12-29T08:23:41;13.60;99.90
75824;DHT22;64457;51.976;9.834;2022-12-29T08:26:10;13.50;99.90
75824;DHT22;64457;51.976;9.834;2022-12-29T08:28:38;13.70;99.90
75824;DHT22;64457;51.976;9.834;2022-12-29T08:31:07;13.70;99.90
75824;DHT22;64457;51.976;9.834;2022-12-29T08:33:34;13.70;99.90
75824;DHT22;64457;51.976;9.834;2022-12-29T08:36:09;13.50;99.90
75824;DHT22;64457;51.976;9.834;2022-12-29T08:38:36;13.50;99.90
75824;DHT22;64457;51.976;9.834;2022-12-29T08:41:04;13.30;99.90
75824;DHT22;64457;51.976;9.834;2022-12-29T08:43:31;13.40;99.90
75824;DHT22;64457;51.976;9.834;2022-12-29T08:45:59;13.30;99.90
75824;DHT22;64457;51.976;9.834;2022-12-29T08:48:28;13.40;99.90
75824;DHT22;64457;51.976;9.834;2022-12-29T08:50:56;13.60;99.90
75824;DHT22;64457;51.976;9.834;2022-12-29T08:53:24;13.40;99.90
75824;DHT22;64457;51.976;9.834;2022-12-29T08:55:56;13.50;99.90
75824;DHT22;64457;51.976;9.834;2022-12-29T08:58:25;13.40;99.90
75824;DHT22;64457;51.976;9.834;2022-12-29T09:00:54;13.40;99.90
75824;DHT22;64457;51.976;9.834;2022-12-29T09:03:23;13.60;99.90
75824;DHT22;64457;51.976;9.834;2022-12-29T09:05:54;13.60;99.90
75824;DHT22;64457;51.976;9.834;2022-12-29T09:08:22;13.40;99.90
75824;DHT22;64457;51.976;9.834;2022-12-29T09:10:50;13.50;99.90
75824;DHT22;64457;51.976;9.834;2022-12-29T09:13:18;13.50;99.90
75824;DHT22;64457;51.976;9.834;2022-12-29T09:15:46;13.60;99.90
75824;DHT22;64457;51.976;9.834;2022-12-29T09:18:15;13.60;99.90
75824;DHT22;64457;51.976;9.834;2022-12-29T09:20:43;13.30;99.90
75824;DHT22;64457;51.976;9.834;2022-12-29T09:23:12;13.30;99.90
75824;DHT22;64457;51.976;9.834;2022-12-29T09:25:40;13.40;99.90
75824;DHT22;64457;51.976;9.834;2022-12-29T09:28:09;13.40;99.90
75824;DHT22;64457;51.976;9.834;2022-12-29T09:30:36;13.40;99.90
75824;DHT22;64457;51.976;9.834;2022-12-29T09:33:04;13.40;99.90
75824;DHT22;64457;51.976;9.834;2022-12-29T09:35:31;13.60;99.90
75824;DHT22;64457;51.976;9.834;2022-12-29T09:38:01;13.60;99.90
75824;DHT22;64457;51.976;9.834;2022-12-29T09:40:32;13.30;99.90
75824;DHT22;64457;51.976;9.834;2022-12-29T09:43:22;13.20;99.90
75824;DHT22;64457;51.976;9.834;2022-12-29T09:46:28;13.10;99.90
75824;DHT22;64457;51.976;9.834;2022-12-29T09:49:07;13.50;99.90
75824;DHT22;64457;51.976;9.834;2022-12-29T09:51:46;13.50;99.90
75824;DHT22;64457;51.976;9.834;2022-12-29T09:54:27;13.20;99.90
75824;DHT22;64457;51.976;9.834;2022-12-29T09:57:13;13.30;99.90
75824;DHT22;64457;51.976;9.834;2022-12-29T09:59:44;13.50;99.90
75824;DHT22;64457;51.976;9.834;2022-12-29T10:02:25;13.80;99.90
75824;DHT22;64457;51.976;9.834;2022-12-29T10:04:56;13.70;99.90
75824;DHT22;64457;51.976;9.834;2022-12-29T10:07:36;13.70;99.90
75824;DHT22;64457;51.976;9.834;2022-12-29T10:10:23;13.70;99.90
75824;DHT22;64457;51.976;9.834;2022-12-29T10:13:16;13.60;99.90
75824;DHT22;64457;51.976;9.834;2022-12-29T10:15:59;13.40;99.90
75824;DHT22;64457;51.976;9.834;2022-12-29T10:18:49;13.30;99.90
75824;DHT22;64457;51.976;9.834;2022-12-29T10:21:33;13.40;99.90
75824;DHT22;64457;51.976;9.834;2022-12-29T10:24:11;13.60;99.90
75824;DHT22;64457;51.976;9.834;2022-12-29T10:26:46;13.70;99.90
75824;DHT22;64457;51.976;9.834;2022-12-29T10:29:21;13.60;99.70
75824;DHT22;64457;51.976;9.834;2022-12-29T10:31:56;13.50;99.90
75824;DHT22;64457;51.976;9.834;2022-12-29T10:34:28;13.60;99.90
75824;DHT22;64457;51.976;9.834;2022-12-29T10:37:02;13.70;99.60
75824;DHT22;64457;51.976;9.834;2022-12-29T10:39:43;13.80;99.60
75824;DHT22;64457;51.976;9.834;2022-12-29T10:42:25;13.70;99.50
75824;DHT22;64457;51.976;9.834;2022-12-29T10:44:56;13.80;99.30
75824;DHT22;64457;51.976;9.834;2022-12-29T10:47:29;13.80;99.30
75824;DHT22;64457;51.976;9.834;2022-12-29T10:50:03;13.70;99.40
75824;DHT22;64457;51.976;9.834;2022-12-29T10:52:41;13.70;99.00
75824;DHT22;64457;51.976;9.834;2022-12-29T10:55:13;13.60;99.40
75824;DHT22;64457;51.976;9.834;2022-12-29T10:57:45;13.90;99.30
75824;DHT22;64457;51.976;9.834;2022-12-29T11:00:19;13.90;98.60
75824;DHT22;64457;51.976;9.834;2022-12-29T11:03:16;14.00;98.50
75824;DHT22;64457;51.976;9.834;2022-12-29T11:05:55;14.00;99.00
75824;DHT22;64457;51.976;9.834;2022-12-29T11:08:28;14.10;98.70
75824;DHT22;64457;51.976;9.834;2022-12-29T11:10:59;13.80;98.30
75824;DHT22;64457;51.976;9.834;2022-12-29T11:13:29;13.50;98.60
75824;DHT22;64457;51.976;9.834;2022-12-29T11:16:00;13.40;99.00
75824;DHT22;64457;51.976;9.834;2022-12-29T11:18:32;13.60;99.30
75824;DHT22;64457;51.976;9.834;2022-12-29T11:21:31;13.70;98.70
75824;DHT22;64457;51.976;9.834;2022-12-29T11:24:19;13.70;99.00
75824;DHT22;64457;51.976;9.834;2022-12-29T11:27:10;13.70;98.60
75824;DHT22;64457;51.976;9.834;2022-12-29T11:29:43;13.90;98.80
75824;DHT22;64457;51.976;9.834;2022-12-29T11:32:18;13.50;98.60
75824;DHT22;64457;51.976;9.834;2022-12-29T11:34:53;13.50;99.70
75824;DHT22;64457;51.976;9.834;2022-12-29T11:37:27;13.50;99.80
75824;DHT22;64457;51.976;9.834;2022-12-29T11:39:58;13.50;99.90
75824;DHT22;64457;51.976;9.834;2022-12-29T11:42:35;13.00;99.90
75824;DHT22;64457;51.976;9.834;2022-12-29T11:45:06;12.50;99.90
75824;DHT22;64457;51.976;9.834;2022-12-29T11:47:47;12.30;99.90
75824;DHT22;64457;51.976;9.834;2022-12-29T11:50:18;12.40;99.90
75824;DHT22;64457;51.976;9.834;2022-12-29T11:52:58;12.30;99.90
75824;DHT22;64457;51.976;9.834;2022-12-29T11:55:29;12.30;99.90
75824;DHT22;64457;51.976;9.834;2022-12-29T11:58:00;12.30;99.90
75824;DHT22;64457;51.976;9.834;2022-12-29T12:00:33;12.30;99.90
75824;DHT22;64457;51.976;9.834;2022-12-29T12:03:12;12.60;99.90
75824;DHT22;64457;51.976;9.834;2022-12-29T12:05:49;12.80;99.90
75824;DHT22;64457;51.976;9.834;2022-12-29T12:08:31;13.00;99.90
75824;DHT22;64457;51.976;9.834;2022-12-29T12:11:08;13.10;99.90
75824;DHT22;64457;51.976;9.834;2022-12-29T12:13:50;13.30;99.90
75824;DHT22;64457;51.976;9.834;2022-12-29T12:16:30;13.50;99.90
75824;DHT22;64457;51.976;9.834;2022-12-29T12:19:16;13.50;99.90
75824;DHT22;64457;51.976;9.834;2022-12-29T12:22:05;13.50;99.90
75824;DHT22;64457;51.976;9.834;2022-12-29T12:24:44;13.50;99.30
75824;DHT22;64457;51.976;9.834;2022-12-29T12:27:19;13.40;99.70
75824;DHT22;64457;51.976;9.834;2022-12-29T12:30:02;13.50;99.70
75824;DHT22;64457;51.976;9.834;2022-12-29T12:32:41;13.70;99.60
75824;DHT22;64457;51.976;9.834;2022-12-29T12:35:20;13.60;99.00
75824;DHT22;64457;51.976;9.834;2022-12-29T12:41:00;13.80;99.60
75824;DHT22;64457;51.976;9.834;2022-12-29T12:43:39;13.70;99.20
75824;DHT22;64457;51.976;9.834;2022-12-29T12:46:41;13.50;98.50
75824;DHT22;64457;51.976;9.834;2022-12-29T12:49:53;13.50;98.70
75824;DHT22;64457;51.976;9.834;2022-12-29T12:53:07;13.70;98.50
75824;DHT22;64457;51.976;9.834;2022-12-29T12:56:06;13.40;97.60
75824;DHT22;64457;51.976;9.834;2022-12-29T12:58:49;13.40;97.60
75824;DHT22;64457;51.976;9.834;2022-12-29T13:01:29;13.50;97.80
75824;DHT22;64457;51.976;9.834;2022-12-29T13:04:25;13.20;96.90
75824;DHT22;64457;51.976;9.834;2022-12-29T13:07:15;13.30;97.90
75824;DHT22;64457;51.976;9.834;2022-12-29T13:10:05;13.30;97.10
75824;DHT22;64457;51.976;9.834;2022-12-29T13:12:47;13.20;97.30
75824;DHT22;64457;51.976;9.834;2022-12-29T13:15:37;13.40;96.60
75824;DHT22;64457;51.976;9.834;2022-12-29T13:18:18;13.10;96.60
75824;DHT22;64457;51.976;9.834;2022-12-29T13:20:55;13.30;97.40
75824;DHT22;64457;51.976;9.834;2022-12-29T13:23:33;13.40;96.80
75824;DHT22;64457;51.976;9.834;2022-12-29T13:26:11;13.40;96.80
75824;DHT22;64457;51.976;9.834;2022-12-29T13:28:57;13.30;95.80
75824;DHT22;64457;51.976;9.834;2022-12-29T13:31:35;13.10;96.60
75824;DHT22;64457;51.976;9.834;2022-12-29T13:34:22;13.30;96.60
75824;DHT22;64457;51.976;9.834;2022-12-29T13:36:59;13.30;96.20
75824;DHT22;64457;51.976;9.834;2022-12-29T13:39:34;13.40;96.20
75824;DHT22;64457;51.976;9.834;2022-12-29T13:42:11;13.30;96.40
75824;DHT22;64457;51.976;9.834;2022-12-29T13:44:43;13.20;96.60
75824;DHT22;64457;51.976;9.834;2022-12-29T13:47:21;13.00;96.40
75824;DHT22;64457;51.976;9.834;2022-12-29T13:49:56;13.20;96.90
75824;DHT22;64457;51.976;9.834;2022-12-29T13:52:31;13.20;96.40
75824;DHT22;64457;51.976;9.834;2022-12-29T13:55:19;12.80;96.60
75824;DHT22;64457;51.976;9.834;2022-12-29T13:58:03;12.80;96.60
75824;DHT22;64457;51.976;9.834;2022-12-29T14:00:42;12.80;96.80
75824;DHT22;64457;51.976;9.834;2022-12-29T14:03:28;12.80;96.60
75824;DHT22;64457;51.976;9.834;2022-12-29T14:06:15;13.10;97.00
75824;DHT22;64457;51.976;9.834;2022-12-29T14:08:47;13.30;97.20
75824;DHT22;64457;51.976;9.834;2022-12-29T14:11:22;13.40;97.00
75824;DHT22;64457;51.976;9.834;2022-12-29T14:13:52;13.40;96.80
75824;DHT22;64457;51.976;9.834;2022-12-29T14:16:32;13.40;96.70
75824;DHT22;64457;51.976;9.834;2022-12-29T14:19:13;13.60;96.30
75824;DHT22;64457;51.976;9.834;2022-12-29T14:21:52;13.20;96.40
75824;DHT22;64457;51.976;9.834;2022-12-29T14:24:41;13.20;96.40
75824;DHT22;64457;51.976;9.834;2022-12-29T14:33:28;13.20;96.20
75824;DHT22;64457;51.976;9.834;2022-12-29T14:36:19;13.30;96.40
75824;DHT22;64457;51.976;9.834;2022-12-29T14:38:48;13.60;96.60
75824;DHT22;64457;51.976;9.834;2022-12-29T14:41:29;13.50;95.80
75824;DHT22;64457;51.976;9.834;2022-12-29T14:44:02;13.40;96.20
75824;DHT22;64457;51.976;9.834;2022-12-29T14:46:49;13.40;96.40
75824;DHT22;64457;51.976;9.834;2022-12-29T14:49:26;13.10;96.60
75824;DHT22;64457;51.976;9.834;2022-12-29T14:52:06;13.00;96.30
75824;DHT22;64457;51.976;9.834;2022-12-29T14:54:44;12.80;96.50
75824;DHT22;64457;51.976;9.834;2022-12-29T14:57:33;12.80;97.00
75824;DHT22;64457;51.976;9.834;2022-12-29T15:00:16;13.00;97.50
75824;DHT22;64457;51.976;9.834;2022-12-29T15:02:52;13.10;97.40
75824;DHT22;64457;51.976;9.834;2022-12-29T15:05:35;13.10;97.70
75824;DHT22;64457;51.976;9.834;2022-12-29T15:08:09;13.10;97.50
75824;DHT22;64457;51.976;9.834;2022-12-29T15:10:40;12.70;97.90
75824;DHT22;64457;51.976;9.834;2022-12-29T15:13:17;12.70;97.90
75824;DHT22;64457;51.976;9.834;2022-12-29T15:15:56;12.60;98.00
75824;DHT22;64457;51.976;9.834;2022-12-29T15:18:25;12.70;97.70
75824;DHT22;64457;51.976;9.834;2022-12-29T15:20:59;12.80;97.70
75824;DHT22;64457;51.976;9.834;2022-12-29T15:23:29;12.70;97.30
75824;DHT22;64457;51.976;9.834;2022-12-29T15:26:00;12.50;98.70
75824;DHT22;64457;51.976;9.834;2022-12-29T15:28:37;12.60;99.40
75824;DHT22;64457;51.976;9.834;2022-12-29T15:31:12;12.40;99.40
75824;DHT22;64457;51.976;9.834;2022-12-29T15:33:44;12.10;99.60
75824;DHT22;64457;51.976;9.834;2022-12-29T15:36:18;12.20;99.90
75824;DHT22;64457;51.976;9.834;2022-12-29T15:38:48;12.20;99.80
75824;DHT22;64457;51.976;9.834;2022-12-29T15:41:25;12.40;99.90
75824;DHT22;64457;51.976;9.834;2022-12-29T15:44:09;12.20;99.50
75824;DHT22;64457;51.976;9.834;2022-12-29T15:46:43;12.20;99.80
75824;DHT22;64457;51.976;9.834;2022-12-29T15:49:14;12.20;99.80
75824;DHT22;64457;51.976;9.834;2022-12-29T15:51:42;12.20;99.90
75824;DHT22;64457;51.976;9.834;2022-12-29T15:54:15;12.20;99.90
75824;DHT22;64457;51.976;9.834;2022-12-29T15:56:45;12.40;99.80
75824;DHT22;64457;51.976;9.834;2022-12-29T15:59:23;12.60;99.90
75824;DHT22;64457;51.976;9.834;2022-12-29T16:01:54;12.40;99.60
75824;DHT22;64457;51.976;9.834;2022-12-29T16:04:23;12.60;99.70
75824;DHT22;64457;51.976;9.834;2022-12-29T16:06:56;12.30;99.60
75824;DHT22;64457;51.976;9.834;2022-12-29T16:09:30;12.20;99.90
75824;DHT22;64457;51.976;9.834;2022-12-29T16:12:01;12.40;99.90
75824;DHT22;64457;51.976;9.834;2022-12-29T16:14:33;12.40;99.80
75824;DHT22;64457;51.976;9.834;2022-12-29T16:17:06;12.20;99.30
75824;DHT22;64457;51.976;9.834;2022-12-29T16:19:36;12.20;99.90
75824;DHT22;64457;51.976;9.834;2022-12-29T16:22:12;12.20;99.60
75824;DHT22;64457;51.976;9.834;2022-12-29T16:24:45;12.20;99.30
75824;DHT22;64457;51.976;9.834;2022-12-29T16:27:19;12.00;99.40
75824;DHT22;64457;51.976;9.834;2022-12-29T16:29:53;12.10;99.20
75824;DHT22;64457;51.976;9.834;2022-12-29T16:32:26;12.20;99.50